Amarillo, Texas
Current Conditions -  °F | °C
As of 8:53 PM on Tuesday 25 Nov 2014 (Local Time) from KAMA Reporting Station
Clear Clear  
Wind Chill:   Ceiling: Unl
Heat Index:   Visibility: 10mi
Dew Point: -10°   Wind: 13mph
Humidity: 26%   Direction: 260°W
Pressure: 29.98"   Gusts: NA
Location:  35.21°N, 101.83°W
Report Text: KAMA 260253Z 26011KT 10SM CLR 09/M10 A2998 RMK AO2 SLP150 T00891100 53002
Loading
Personal Weather Stations






























Interactive Weather Map New forecast layout! Learn more

10-Day Weather Forecast

Advertisements
Track Severe Weather on mobile